Time;durP1;ratioP1;P1;durP2;ratioP2;P2;SDS_P1;SDS_P2;PMS_P1;PMS_P2;Temp;Humidity;BMP_temperature;BMP_pressure;BME280_temperature;BME280_humidity;BME280_pressure;Samples;Min_cycle;Max_cycle;Signal;HPM_P1;HPM_P2
2024/01/03 00:00:17;;;;;;;29.27;17.83;;;12.50;71.30;;;;;;349816;28;1236;-54
2024/01/03 00:00:30;;;;;;;31.38;18.77;;;12.40;71.30;;;;;;349769;28;875;-53
2024/01/03 00:00:43;;;;;;;31.23;18.58;;;12.40;71.30;;;;;;349697;28;1181;-55
2024/01/03 00:00:55;;;;;;;31.55;18.10;;;12.40;71.40;;;;;;349830;28;946;-56
2024/01/03 00:01:06;;;;;;;33.17;18.40;;;12.40;71.40;;;;;;349784;28;1390;-55
2024/01/03 00:01:17;;;;;;;33.28;18.60;;;12.40;71.40;;;;;;349851;28;1147;-57
2024/01/03 00:01:29;;;;;;;34.90;18.90;;;12.40;71.40;;;;;;349729;28;1153;-57
2024/01/03 00:01:42;;;;;;;32.65;19.15;;;12.40;71.40;;;;;;349788;28;1058;-54
2024/01/03 00:01:58;;;;;;;30.02;18.85;;;12.40;71.50;;;;;;349815;28;851;-55
2024/01/03 00:02:10;;;;;;;29.55;18.55;;;12.40;71.50;;;;;;349722;28;1105;-55
2024/01/03 00:02:21;;;;;;;29.60;18.98;;;12.40;71.50;;;;;;349860;28;915;-54
2024/01/03 00:02:32;;;;;;;27.47;18.53;;;12.40;71.50;;;;;;349879;28;894;-54
2024/01/03 00:02:47;;;;;;;27.02;18.65;;;12.40;71.50;;;;;;349821;28;840;-55
2024/01/03 00:02:58;;;;;;;31.30;18.33;;;12.40;71.50;;;;;;349720;28;2606;-56
2024/01/03 00:03:09;;;;;;;32.87;18.37;;;12.40;71.50;;;;;;349865;28;848;-55
2024/01/03 00:03:20;;;;;;;32.85;18.30;;;12.40;71.50;;;;;;349826;28;1038;-56
2024/01/03 00:03:31;;;;;;;29.70;18.25;;;12.40;71.50;;;;;;349783;28;1034;-54
2024/01/03 00:03:42;;;;;;;27.30;17.95;;;12.40;71.50;;;;;;349675;28;1113;-55
2024/01/03 00:03:54;;;;;;;28.67;18.07;;;12.40;71.50;;;;;;349796;28;1265;-55
2024/01/03 00:04:07;;;;;;;31.27;19.02;;;12.50;71.60;;;;;;349825;28;1192;-55
2024/01/03 00:04:25;;;;;;;30.35;18.80;;;12.50;71.60;;;;;;349829;28;1027;-55
2024/01/03 00:04:36;;;;;;;30.63;17.83;;;12.50;71.50;;;;;;349786;28;1030;-55
2024/01/03 00:04:46;;;;;;;31.58;18.05;;;12.40;71.50;;;;;;349853;28;970;-57
2024/01/03 00:04:58;;;;;;;33.10;18.20;;;12.50;71.50;;;;;;349844;28;820;-55
2024/01/03 00:05:09;;;;;;;29.85;17.65;;;12.50;71.50;;;;;;349818;28;1141;-56
2024/01/03 00:05:44;;;;;;;29.50;17.85;;;12.50;71.50;;;;;;349734;28;1090;-55
2024/01/03 00:05:55;;;;;;;27.15;17.98;;;12.50;71.50;;;;;;349370;28;1963;-55
2024/01/03 00:06:06;;;;;;;28.97;18.23;;;12.50;71.50;;;;;;349655;28;1810;-55
2024/01/03 00:06:16;;;;;;;28.63;18.25;;;12.50;71.50;;;;;;349806;28;974;-54
2024/01/03 00:06:33;;;;;;;29.95;18.85;;;12.50;71.50;;;;;;349780;28;974;-57
2024/01/03 00:06:44;;;;;;;27.20;18.63;;;12.50;71.50;;;;;;349773;28;1109;-54
2024/01/03 00:06:55;;;;;;;26.77;18.45;;;12.50;71.50;;;;;;349698;28;1101;-54
2024/01/03 00:07:06;;;;;;;30.30;18.67;;;12.50;71.50;;;;;;349773;28;1505;-55
2024/01/03 00:07:17;;;;;;;32.78;18.73;;;12.50;71.50;;;;;;349792;28;1030;-54
2024/01/03 00:07:28;;;;;;;33.58;19.00;;;12.50;71.60;;;;;;349851;28;809;-55
2024/01/03 00:07:40;;;;;;;33.60;18.35;;;12.50;71.60;;;;;;349803;28;1011;-54
2024/01/03 00:07:51;;;;;;;30.73;18.25;;;12.50;71.60;;;;;;349749;28;1349;-56
2024/01/03 00:08:10;;;;;;;31.00;18.15;;;12.50;71.60;;;;;;349803;28;966;-56
2024/01/03 00:08:26;;;;;;;28.80;18.48;;;12.50;71.60;;;;;;349801;28;861;-55
2024/01/03 00:08:38;;;;;;;26.95;17.88;;;12.50;71.60;;;;;;349755;28;927;-54
2024/01/03 00:08:49;;;;;;;27.65;18.08;;;12.50;71.60;;;;;;349805;28;1022;-55
2024/01/03 00:09:01;;;;;;;26.40;18.33;;;12.50;71.60;;;;;;349789;28;1082;-56
2024/01/03 00:09:11;;;;;;;28.25;18.42;;;12.50;71.60;;;;;;349852;28;1034;-55
2024/01/03 00:09:24;;;;;;;30.63;18.23;;;12.50;71.60;;;;;;349793;28;997;-55
2024/01/03 00:09:34;;;;;;;31.70;18.30;;;12.50;71.60;;;;;;349847;28;1026;-54
2024/01/03 00:09:45;;;;;;;30.23;18.00;;;12.50;71.60;;;;;;349788;28;892;-55
2024/01/03 00:09:58;;;;;;;29.00;18.10;;;12.50;71.50;;;;;;349857;28;852;-56
2024/01/03 00:10:45;;;;;;;27.50;18.02;;;12.50;71.50;;;;;;349705;28;1136;-54
2024/01/03 00:10:57;;;;;;;28.35;18.45;;;12.50;71.40;;;;;;349696;28;1113;-55
2024/01/03 00:11:15;;;;;;;28.15;18.38;;;12.50;71.50;;;;;;349812;28;987;-54
2024/01/03 00:11:32;;;;;;;29.55;18.55;;;12.50;71.50;;;;;;349801;28;994;-54
2024/01/03 00:11:42;;;;;;;27.98;18.58;;;12.50;71.50;;;;;;349666;28;959;-55
2024/01/03 00:11:55;;;;;;;29.37;18.73;;;12.50;71.40;;;;;;349761;28;2445;-53
2024/01/03 00:12:07;;;;;;;31.20;18.85;;;12.50;71.50;;;;;;349819;28;986;-55
2024/01/03 00:12:24;;;;;;;30.13;18.05;;;12.50;71.50;;;;;;349835;28;848;-55
2024/01/03 00:12:35;;;;;;;29.98;18.25;;;12.60;71.50;;;;;;349823;28;976;-56
2024/01/03 00:12:46;;;;;;;30.50;18.83;;;12.50;71.50;;;;;;349780;28;1788;-55
2024/01/03 00:12:57;;;;;;;31.15;19.00;;;12.50;71.40;;;;;;349780;28;983;-55
2024/01/03 00:13:29;;;;;;;29.85;18.77;;;12.60;71.40;;;;;;349806;28;1907;-54
2024/01/03 00:14:06;;;;;;;30.63;19.17;;;12.60;71.40;;;;;;349646;28;1137;-55
2024/01/03 00:14:31;;;;;;;30.40;18.92;;;12.60;71.40;;;;;;349459;28;1375;-54
2024/01/03 00:14:41;;;;;;;31.25;18.65;;;12.50;71.30;;;;;;349788;28;1055;-56
2024/01/03 00:14:52;;;;;;;32.00;18.83;;;12.60;71.30;;;;;;349798;28;1109;-55
2024/01/03 00:15:35;;;;;;;31.48;18.60;;;12.60;71.20;;;;;;349805;28;943;-55
2024/01/03 00:16:00;;;;;;;26.10;18.38;;;12.60;71.30;;;;;;349753;28;1053;-56
2024/01/03 00:16:19;;;;;;;31.40;19.17;;;12.60;71.30;;;;;;349779;28;1081;-54
2024/01/03 00:16:32;;;;;;;33.97;19.15;;;12.60;71.30;;;;;;349787;28;1078;-55
2024/01/03 00:16:43;;;;;;;30.70;18.85;;;12.60;71.30;;;;;;349751;28;1415;-55
2024/01/03 00:16:59;;;;;;;31.88;18.73;;;12.60;71.20;;;;;;349771;28;1093;-54
2024/01/03 00:17:10;;;;;;;32.28;19.35;;;12.60;71.20;;;;;;349733;28;1097;-55
2024/01/03 00:17:21;;;;;;;32.45;19.13;;;12.60;71.20;;;;;;349848;28;868;-55
2024/01/03 00:17:32;;;;;;;32.40;19.40;;;12.60;71.20;;;;;;349824;28;1006;-55
2024/01/03 00:17:46;;;;;;;32.83;18.63;;;12.60;71.20;;;;;;352496;28;1506;-54
2024/01/03 00:17:57;;;;;;;33.08;18.55;;;12.70;71.20;;;;;;352359;28;1356;-55
2024/01/03 00:18:39;;;;;;;32.10;18.45;;;12.60;71.20;;;;;;352519;28;1088;-55
2024/01/03 00:18:55;;;;;;;30.95;18.55;;;12.60;71.20;;;;;;352351;28;1121;-56
2024/01/03 00:19:13;;;;;;;30.63;18.35;;;12.70;71.20;;;;;;352485;28;907;-55
2024/01/03 00:19:24;;;;;;;29.40;18.50;;;12.70;71.20;;;;;;352414;28;1101;-55
2024/01/03 00:19:35;;;;;;;30.17;18.65;;;12.60;71.20;;;;;;352164;28;894;-54
2024/01/03 00:19:57;;;;;;;31.50;18.73;;;12.60;71.20;;;;;;349765;28;936;-56
2024/01/03 00:20:08;;;;;;;29.58;18.38;;;12.70;71.20;;;;;;349777;28;888;-55
2024/01/03 00:20:19;;;;;;;27.88;18.67;;;12.70;71.20;;;;;;349792;28;1050;-55
2024/01/03 00:20:32;;;;;;;30.58;18.88;;;12.70;71.20;;;;;;349696;28;1014;-54
2024/01/03 00:20:42;;;;;;;31.52;19.23;;;12.70;71.20;;;;;;349755;28;1018;-54
2024/01/03 00:20:57;;;;;;;32.60;19.52;;;12.60;71.10;;;;;;349760;28;1086;-57
2024/01/03 00:21:10;;;;;;;30.42;19.05;;;12.60;71.20;;;;;;349847;28;844;-55
2024/01/03 00:21:25;;;;;;;29.55;18.45;;;12.70;71.20;;;;;;349758;28;1057;-55
2024/01/03 00:21:36;;;;;;;31.00;19.08;;;12.70;71.20;;;;;;349787;28;1042;-54
2024/01/03 00:21:47;;;;;;;31.70;19.20;;;12.70;71.20;;;;;;349768;28;1467;-55
2024/01/03 00:21:58;;;;;;;32.70;19.00;;;12.70;71.20;;;;;;349737;28;1909;-55
2024/01/03 00:22:11;;;;;;;34.20;19.10;;;12.70;71.10;;;;;;349716;28;1045;-56
2024/01/03 00:22:22;;;;;;;34.26;19.40;;;12.70;71.10;;;;;;349769;28;999;-54
2024/01/03 00:22:33;;;;;;;30.63;19.27;;;12.70;71.10;;;;;;349705;28;1185;-55
2024/01/03 00:22:44;;;;;;;29.48;19.52;;;12.70;71.10;;;;;;349802;28;998;-55
2024/01/03 00:22:55;;;;;;;29.77;19.90;;;12.60;71.10;;;;;;349795;28;1036;-54
2024/01/03 00:23:13;;;;;;;28.85;19.38;;;12.70;71.10;;;;;;349803;28;900;-56
2024/01/03 00:23:37;;;;;;;28.98;18.58;;;12.70;71.20;;;;;;349779;28;1090;-55
2024/01/03 00:24:05;;;;;;;29.88;19.15;;;12.70;71.20;;;;;;349779;28;882;-55
2024/01/03 00:24:19;;;;;;;32.45;19.77;;;12.70;71.20;;;;;;349762;28;1129;-55
2024/01/03 00:24:44;;;;;;;33.17;19.33;;;12.70;71.30;;;;;;349751;28;1050;-54
2024/01/03 00:24:55;;;;;;;34.10;20.27;;;12.70;71.30;;;;;;349682;28;1160;-55
2024/01/03 00:25:10;;;;;;;34.08;19.67;;;12.70;71.30;;;;;;349765;28;1030;-55
2024/01/03 00:25:28;;;;;;;33.20;19.77;;;12.60;71.30;;;;;;349706;28;1004;-55
2024/01/03 00:25:39;;;;;;;33.28;20.45;;;12.70;71.30;;;;;;349770;28;995;-55
2024/01/03 00:25:49;;;;;;;33.58;20.38;;;12.70;71.30;;;;;;349734;28;1552;-54
2024/01/03 00:26:00;;;;;;;33.55;20.77;;;12.70;71.30;;;;;;349760;28;1252;-54
2024/01/03 00:26:12;;;;;;;36.90;21.27;;;12.70;71.30;;;;;;349724;28;1018;-55
2024/01/03 00:26:24;;;;;;;37.33;21.02;;;12.70;71.40;;;;;;349823;28;987;-55
2024/01/03 00:26:38;;;;;;;33.53;20.35;;;12.70;71.30;;;;;;349719;28;1025;-54
2024/01/03 00:26:49;;;;;;;31.63;19.75;;;12.70;71.30;;;;;;349811;28;1074;-55
2024/01/03 00:27:00;;;;;;;31.17;19.85;;;12.70;71.40;;;;;;349819;28;1133;-54
2024/01/03 00:27:11;;;;;;;31.70;20.30;;;12.70;71.30;;;;;;349826;28;1890;-55
2024/01/03 00:27:22;;;;;;;31.15;20.67;;;12.60;71.30;;;;;;349746;28;950;-55
2024/01/03 00:27:33;;;;;;;34.85;20.95;;;12.70;71.30;;;;;;349795;28;1086;-54
2024/01/03 00:27:45;;;;;;;34.20;20.42;;;12.70;71.30;;;;;;349815;28;1724;-54
2024/01/03 00:27:56;;;;;;;36.50;20.35;;;12.70;71.30;;;;;;349828;28;946;-54
2024/01/03 00:28:07;;;;;;;33.72;20.50;;;12.70;71.30;;;;;;349670;28;1105;-55
2024/01/03 00:28:18;;;;;;;33.42;20.65;;;12.70;71.30;;;;;;349779;28;1038;-55
2024/01/03 00:28:29;;;;;;;29.85;20.08;;;12.70;71.30;;;;;;349762;28;1117;-55
2024/01/03 00:28:41;;;;;;;29.10;19.75;;;12.70;71.30;;;;;;349836;28;853;-55
2024/01/03 00:28:52;;;;;;;28.58;19.73;;;12.70;71.30;;;;;;349767;28;1035;-55
2024/01/03 00:29:19;;;;;;;31.15;20.55;;;12.70;71.30;;;;;;349729;28;979;-55
2024/01/03 00:29:54;;;;;;;31.58;20.25;;;12.70;71.40;;;;;;349800;28;956;-55
2024/01/03 00:30:06;;;;;;;36.42;21.25;;;12.70;71.40;;;;;;349750;28;2022;-55
2024/01/03 00:30:17;;;;;;;35.10;21.70;;;12.70;71.40;;;;;;349852;28;904;-56
2024/01/03 00:30:28;;;;;;;31.48;21.05;;;12.70;71.40;;;;;;349779;28;998;-56
2024/01/03 00:30:38;;;;;;;31.98;20.55;;;12.70;71.40;;;;;;349772;28;1048;-56
2024/01/03 00:30:49;;;;;;;30.55;20.02;;;12.70;71.40;;;;;;349796;28;1023;-55
2024/01/03 00:31:01;;;;;;;29.23;19.95;;;12.70;71.30;;;;;;349838;28;1078;-56
2024/01/03 00:31:44;;;;;;;28.75;19.80;;;12.70;71.30;;;;;;349811;28;1066;-55
2024/01/03 00:31:55;;;;;;;34.40;20.63;;;12.70;71.30;;;;;;349756;28;995;-56
2024/01/03 00:32:06;;;;;;;32.20;20.88;;;12.70;71.30;;;;;;349827;28;844;-55
2024/01/03 00:32:18;;;;;;;32.90;20.75;;;12.70;71.30;;;;;;349733;28;892;-55
2024/01/03 00:32:28;;;;;;;30.42;20.02;;;12.70;71.30;;;;;;349811;28;1034;-56
2024/01/03 00:32:39;;;;;;;33.20;20.10;;;12.70;71.30;;;;;;349802;28;883;-56
2024/01/03 00:32:50;;;;;;;33.20;20.35;;;12.70;71.30;;;;;;349680;28;1118;-55
2024/01/03 00:33:01;;;;;;;33.55;20.42;;;12.70;71.30;;;;;;349745;28;1054;-54
2024/01/03 00:33:12;;;;;;;33.65;20.75;;;12.70;71.30;;;;;;349826;28;987;-55
2024/01/03 00:33:22;;;;;;;32.88;20.65;;;12.70;71.30;;;;;;349668;28;1046;-56
2024/01/03 00:33:40;;;;;;;33.60;21.17;;;12.70;71.30;;;;;;349793;28;844;-55
2024/01/03 00:33:51;;;;;;;32.72;21.40;;;12.70;71.30;;;;;;349655;28;1042;-55
2024/01/03 00:34:05;;;;;;;33.50;21.00;;;12.70;71.30;;;;;;349768;28;998;-55
2024/01/03 00:34:21;;;;;;;33.25;20.83;;;12.70;71.30;;;;;;349799;28;844;-55
2024/01/03 00:34:39;;;;;;;32.50;20.80;;;12.70;71.40;;;;;;349701;28;1012;-55
2024/01/03 00:34:51;;;;;;;31.85;20.10;;;12.70;71.40;;;;;;349777;28;1339;-56
2024/01/03 00:35:03;;;;;;;30.85;19.88;;;12.70;71.40;;;;;;349751;28;959;-55
2024/01/03 00:35:15;;;;;;;33.25;20.13;;;12.70;71.40;;;;;;349788;28;1677;-55
2024/01/03 00:35:25;;;;;;;32.45;20.25;;;12.70;71.40;;;;;;349819;28;1038;-56
2024/01/03 00:35:37;;;;;;;32.10;20.10;;;12.70;71.40;;;;;;349729;28;847;-56
2024/01/03 00:35:48;;;;;;;29.90;20.77;;;12.70;71.40;;;;;;349762;28;1873;-55
2024/01/03 00:35:58;;;;;;;30.98;20.95;;;12.70;71.40;;;;;;349768;28;948;-54
2024/01/03 00:36:11;;;;;;;32.20;21.23;;;12.70;71.40;;;;;;349748;28;924;-56
2024/01/03 00:36:22;;;;;;;37.15;20.88;;;12.70;71.40;;;;;;349732;28;1097;-55
2024/01/03 00:36:33;;;;;;;38.22;20.45;;;12.70;71.40;;;;;;349720;28;1055;-55
2024/01/03 00:36:47;;;;;;;32.70;19.98;;;12.70;71.40;;;;;;349669;28;968;-54
2024/01/03 00:36:58;;;;;;;31.60;20.65;;;12.70;71.40;;;;;;349804;28;1050;-53
2024/01/03 00:37:23;;;;;;;30.63;20.70;;;12.70;71.40;;;;;;349781;28;951;-55
2024/01/03 00:37:35;;;;;;;32.35;21.30;;;12.70;71.40;;;;;;349795;28;904;-56
2024/01/03 00:37:46;;;;;;;33.42;20.95;;;12.70;71.40;;;;;;349791;28;864;-55
2024/01/03 00:37:57;;;;;;;33.63;21.30;;;12.70;71.30;;;;;;349695;28;1137;-55
2024/01/03 00:38:08;;;;;;;34.75;21.30;;;12.70;71.30;;;;;;349748;28;1107;-55
2024/01/03 00:38:19;;;;;;;36.10;20.92;;;12.70;71.30;;;;;;349749;28;1031;-55
2024/01/03 00:38:32;;;;;;;36.10;20.48;;;12.70;71.30;;;;;;349728;28;896;-55
2024/01/03 00:38:44;;;;;;;34.72;20.65;;;12.70;71.30;;;;;;349741;28;1533;-56
2024/01/03 00:38:55;;;;;;;35.40;21.08;;;12.70;71.20;;;;;;349742;28;1121;-54
2024/01/03 00:39:07;;;;;;;36.25;21.67;;;12.70;71.20;;;;;;349664;28;1101;-54
2024/01/03 00:39:36;;;;;;;37.15;21.67;;;12.70;71.20;;;;;;349777;28;1054;-55
2024/01/03 00:39:46;;;;;;;37.65;21.38;;;12.70;71.20;;;;;;349635;28;1212;-53
2024/01/03 00:39:59;;;;;;;37.40;21.85;;;12.70;71.20;;;;;;349781;28;995;-55
2024/01/03 00:40:49;;;;;;;35.10;21.48;;;12.70;71.10;;;;;;349782;28;991;-55
2024/01/03 00:40:59;;;;;;;35.05;20.80;;;12.70;71.10;;;;;;349635;28;988;-56
2024/01/03 00:41:11;;;;;;;35.42;20.50;;;12.70;71.10;;;;;;349748;28;1043;-55
2024/01/03 00:41:21;;;;;;;34.92;20.90;;;12.70;71.20;;;;;;349818;28;999;-55
2024/01/03 00:41:32;;;;;;;34.53;21.17;;;12.70;71.20;;;;;;349683;28;1052;-54
2024/01/03 00:41:43;;;;;;;34.30;21.42;;;12.70;71.10;;;;;;349795;28;884;-54
2024/01/03 00:41:54;;;;;;;33.90;21.70;;;12.70;71.10;;;;;;349608;28;1164;-55
2024/01/03 00:42:05;;;;;;;32.08;20.88;;;12.70;71.10;;;;;;349720;28;1910;-55
2024/01/03 00:42:16;;;;;;;31.23;20.57;;;12.70;71.10;;;;;;349786;28;1112;-56
2024/01/03 00:42:27;;;;;;;32.38;20.45;;;12.70;71.10;;;;;;349731;28;1569;-57
2024/01/03 00:42:38;;;;;;;34.23;21.00;;;12.70;71.10;;;;;;349770;28;955;-55
2024/01/03 00:42:49;;;;;;;35.90;21.02;;;12.70;71.10;;;;;;349837;28;816;-55
2024/01/03 00:42:59;;;;;;;36.47;21.08;;;12.70;71.10;;;;;;349752;28;1243;-55
2024/01/03 00:43:10;;;;;;;35.45;21.45;;;12.70;71.10;;;;;;349791;28;864;-54
2024/01/03 00:43:21;;;;;;;37.63;21.65;;;12.70;71.10;;;;;;349667;28;1086;-54
2024/01/03 00:43:32;;;;;;;35.75;21.13;;;12.70;71.00;;;;;;349789;28;1193;-54
2024/01/03 00:43:43;;;;;;;36.23;20.90;;;12.70;71.00;;;;;;349740;28;1026;-55
2024/01/03 00:43:53;;;;;;;34.92;20.75;;;12.70;71.00;;;;;;349762;28;871;-55
2024/01/03 00:44:04;;;;;;;36.42;21.35;;;12.70;71.00;;;;;;349759;28;1003;-55
2024/01/03 00:44:15;;;;;;;35.55;21.10;;;12.70;71.00;;;;;;349712;28;1040;-55
2024/01/03 00:44:26;;;;;;;36.50;21.10;;;12.70;71.00;;;;;;349756;28;1102;-55
2024/01/03 00:44:36;;;;;;;34.93;20.87;;;12.70;71.00;;;;;;349780;28;1848;-55
2024/01/03 00:44:47;;;;;;;33.88;20.67;;;12.70;71.00;;;;;;349785;28;1006;-54
2024/01/03 00:44:58;;;;;;;33.75;20.67;;;12.70;71.00;;;;;;349799;28;895;-54
2024/01/03 00:45:09;;;;;;;35.05;20.67;;;12.70;71.00;;;;;;349621;28;1094;-54
2024/01/03 00:45:20;;;;;;;34.75;20.95;;;12.70;71.00;;;;;;349794;28;967;-55
2024/01/03 00:45:30;;;;;;;33.27;21.27;;;12.80;71.00;;;;;;349804;28;921;-55
2024/01/03 00:45:41;;;;;;;31.70;21.02;;;12.70;70.90;;;;;;349819;28;841;-56
2024/01/03 00:45:52;;;;;;;31.63;20.90;;;12.80;70.90;;;;;;349797;28;892;-55
2024/01/03 00:46:04;;;;;;;32.35;20.95;;;12.80;70.90;;;;;;349712;28;931;-55
2024/01/03 00:46:15;;;;;;;32.78;21.23;;;12.80;70.90;;;;;;349744;28;1121;-57
2024/01/03 00:46:26;;;;;;;32.45;21.30;;;12.70;70.90;;;;;;349751;28;1106;-54
2024/01/03 00:46:37;;;;;;;34.53;21.90;;;12.80;70.90;;;;;;349788;28;1916;-54
2024/01/03 00:46:48;;;;;;;36.33;21.85;;;12.70;70.90;;;;;;349738;28;832;-54
2024/01/03 00:46:59;;;;;;;36.25;21.65;;;12.70;70.80;;;;;;349804;28;1239;-55
2024/01/03 00:47:11;;;;;;;35.70;21.10;;;12.80;70.90;;;;;;349730;28;995;-54
2024/01/03 00:47:22;;;;;;;35.17;21.42;;;12.80;70.80;;;;;;349747;28;1870;-56
2024/01/03 00:47:33;;;;;;;36.15;22.15;;;12.80;70.90;;;;;;349697;28;1122;-55
2024/01/03 00:47:44;;;;;;;36.75;21.85;;;12.80;70.90;;;;;;349814;28;856;-56
2024/01/03 00:47:55;;;;;;;36.47;21.63;;;12.70;70.80;;;;;;349784;28;856;-55
2024/01/03 00:48:06;;;;;;;37.03;21.02;;;12.80;70.90;;;;;;349740;28;1512;-54
2024/01/03 00:48:18;;;;;;;35.50;21.10;;;12.80;70.90;;;;;;349605;28;1257;-56
2024/01/03 00:48:29;;;;;;;35.08;22.08;;;12.80;70.90;;;;;;349783;28;968;-54
2024/01/03 00:48:40;;;;;;;35.00;22.48;;;12.70;70.90;;;;;;349698;28;1473;-55
2024/01/03 00:48:51;;;;;;;34.60;21.77;;;12.70;70.90;;;;;;349781;28;943;-55
2024/01/03 00:49:02;;;;;;;34.50;21.08;;;12.80;70.90;;;;;;349632;28;1164;-55
2024/01/03 00:49:13;;;;;;;34.35;21.20;;;12.80;70.90;;;;;;349803;28;931;-56
2024/01/03 00:49:24;;;;;;;34.03;21.35;;;12.80;70.90;;;;;;349777;28;931;-54
2024/01/03 00:49:36;;;;;;;34.28;21.35;;;12.80;70.90;;;;;;349737;28;1031;-55
2024/01/03 00:49:48;;;;;;;34.33;21.67;;;12.70;70.90;;;;;;349601;28;1637;-56
2024/01/03 00:49:59;;;;;;;34.03;21.83;;;12.70;70.90;;;;;;349769;28;1003;-56
2024/01/03 00:50:09;;;;;;;34.38;22.00;;;12.70;70.90;;;;;;349740;28;1114;-55
2024/01/03 00:50:20;;;;;;;35.72;21.38;;;12.70;70.90;;;;;;349716;28;1897;-56
2024/01/03 00:50:31;;;;;;;35.83;20.77;;;12.70;70.90;;;;;;349717;28;1050;-55
2024/01/03 00:50:42;;;;;;;33.80;20.63;;;12.80;71.00;;;;;;349755;28;991;-54
2024/01/03 00:50:53;;;;;;;33.38;20.80;;;12.70;71.00;;;;;;349681;28;1424;-54
2024/01/03 00:51:04;;;;;;;34.05;21.23;;;12.80;71.00;;;;;;349750;28;1027;-55
2024/01/03 00:51:15;;;;;;;37.33;21.23;;;12.80;71.10;;;;;;349624;28;1039;-55
2024/01/03 00:51:26;;;;;;;39.38;21.50;;;12.80;71.10;;;;;;349708;28;1180;-55
2024/01/03 00:51:37;;;;;;;40.50;21.70;;;12.80;71.10;;;;;;349775;28;1031;-54
2024/01/03 00:51:49;;;;;;;39.60;21.85;;;12.80;71.10;;;;;;349776;28;1105;-56
2024/01/03 00:52:01;;;;;;;36.13;21.55;;;12.80;71.10;;;;;;349779;28;1141;-55
2024/01/03 00:52:12;;;;;;;33.63;21.05;;;12.80;71.10;;;;;;349649;28;1598;-56
2024/01/03 00:52:23;;;;;;;32.50;21.02;;;12.80;71.10;;;;;;349761;28;892;-55
2024/01/03 00:52:34;;;;;;;33.05;20.55;;;12.80;71.10;;;;;;349771;28;988;-55
2024/01/03 00:52:44;;;;;;;33.77;21.10;;;12.80;71.20;;;;;;349784;28;1074;-54
2024/01/03 00:52:55;;;;;;;35.30;21.05;;;12.80;71.20;;;;;;349788;28;808;-56
2024/01/03 00:53:07;;;;;;;35.28;21.65;;;12.70;71.20;;;;;;349705;28;889;-55
2024/01/03 00:53:17;;;;;;;36.05;21.65;;;12.70;71.20;;;;;;349804;28;923;-55
2024/01/03 00:53:29;;;;;;;36.58;22.13;;;12.80;71.20;;;;;;349809;28;923;-55
2024/01/03 00:53:40;;;;;;;36.63;21.92;;;12.80;71.20;;;;;;349798;28;990;-56
2024/01/03 00:53:51;;;;;;;35.53;21.63;;;12.80;71.30;;;;;;349739;28;2083;-56
2024/01/03 00:54:02;;;;;;;31.90;20.85;;;12.80;71.30;;;;;;349712;28;1025;-55
2024/01/03 00:54:14;;;;;;;32.35;21.27;;;12.80;71.40;;;;;;349781;28;1758;-56
2024/01/03 00:54:25;;;;;;;34.95;21.58;;;12.80;71.40;;;;;;349731;28;1227;-54
2024/01/03 00:54:37;;;;;;;35.80;21.85;;;12.80;71.40;;;;;;349818;28;903;-54
2024/01/03 00:54:48;;;;;;;34.35;21.75;;;12.70;71.40;;;;;;349702;28;1557;-55
2024/01/03 00:54:59;;;;;;;33.58;21.77;;;12.80;71.30;;;;;;349685;28;928;-54
2024/01/03 00:55:11;;;;;;;35.13;21.35;;;12.80;71.30;;;;;;349736;28;1053;-55
2024/01/03 00:55:22;;;;;;;34.13;20.50;;;12.80;71.30;;;;;;349779;28;1074;-54
2024/01/03 00:55:34;;;;;;;32.93;20.43;;;12.70;71.30;;;;;;349772;28;971;-55
2024/01/03 00:55:45;;;;;;;32.67;20.25;;;12.80;71.30;;;;;;349726;28;2016;-55
2024/01/03 00:55:56;;;;;;;32.47;20.25;;;12.80;71.20;;;;;;349723;28;985;-54
2024/01/03 00:56:07;;;;;;;34.05;20.30;;;12.80;71.20;;;;;;349734;28;1456;-55
2024/01/03 00:56:18;;;;;;;35.05;21.05;;;12.80;71.20;;;;;;349759;28;1106;-56
2024/01/03 00:56:30;;;;;;;36.90;21.02;;;12.80;71.20;;;;;;349808;28;928;-58
2024/01/03 00:56:40;;;;;;;37.78;20.98;;;12.80;71.20;;;;;;349743;28;922;-54
2024/01/03 00:56:52;;;;;;;35.55;20.42;;;12.80;71.20;;;;;;349729;28;1016;-55
2024/01/03 00:57:04;;;;;;;33.38;21.70;;;12.80;71.20;;;;;;349746;28;1264;-55
2024/01/03 00:57:15;;;;;;;32.45;23.02;;;12.80;71.20;;;;;;349824;28;829;-54
2024/01/03 00:57:26;;;;;;;37.08;25.35;;;12.80;71.20;;;;;;349796;28;1050;-55
2024/01/03 00:57:37;;;;;;;37.17;24.83;;;12.80;71.20;;;;;;349752;28;1022;-55
2024/01/03 00:57:47;;;;;;;36.80;24.33;;;12.80;71.20;;;;;;349674;28;1824;-55
2024/01/03 00:57:58;;;;;;;34.63;23.03;;;12.80;71.20;;;;;;349751;28;1328;-56
2024/01/03 00:58:10;;;;;;;35.90;23.02;;;12.80;71.20;;;;;;349732;28;2186;-57
2024/01/03 00:58:21;;;;;;;36.60;23.05;;;12.80;71.20;;;;;;349764;28;907;-55
2024/01/03 00:58:33;;;;;;;36.22;22.65;;;12.80;71.20;;;;;;349640;28;1620;-56
2024/01/03 00:58:44;;;;;;;33.95;22.05;;;12.80;71.20;;;;;;349732;28;1067;-55
2024/01/03 00:58:55;;;;;;;34.33;21.95;;;12.80;71.20;;;;;;349783;28;983;-54
2024/01/03 00:59:06;;;;;;;34.65;22.02;;;12.80;71.20;;;;;;349736;28;983;-55
2024/01/03 00:59:17;;;;;;;36.65;22.23;;;12.80;71.20;;;;;;349672;28;1752;-55
2024/01/03 00:59:28;;;;;;;36.95;22.20;;;12.80;71.20;;;;;;349797;28;1002;-55
2024/01/03 00:59:39;;;;;;;37.45;22.77;;;12.80;71.20;;;;;;349756;28;1014;-56
2024/01/03 00:59:50;;;;;;;37.08;22.60;;;12.80;71.20;;;;;;349698;28;980;-55
2024/01/03 01:00:01;;;;;;;35.00;22.42;;;12.80;71.20;;;;;;349705;28;1023;-55
2024/01/03 01:00:12;;;;;;;33.53;21.58;;;12.80;71.20;;;;;;349721;28;1079;-56
2024/01/03 01:00:23;;;;;;;33.38;21.45;;;12.80;71.30;;;;;;349778;28;848;-54
2024/01/03 01:00:34;;;;;;;35.85;22.00;;;12.80;71.30;;;;;;349770;28;1042;-55
2024/01/03 01:00:46;;;;;;;34.05;22.08;;;12.80;71.40;;;;;;349671;28;1043;-54
2024/01/03 01:00:57;;;;;;;32.28;22.15;;;12.80;71.40;;;;;;349705;28;983;-55
2024/01/03 01:01:08;;;;;;;32.22;21.98;;;12.80;71.40;;;;;;349780;28;983;-57
2024/01/03 01:01:19;;;;;;;32.25;22.23;;;12.80;71.40;;;;;;349750;28;1063;-55
2024/01/03 01:01:30;;;;;;;33.05;22.17;;;12.80;71.40;;;;;;349699;28;986;-55
2024/01/03 01:01:41;;;;;;;35.03;22.00;;;12.80;71.40;;;;;;349785;28;892;-55
2024/01/03 01:01:52;;;;;;;38.08;22.02;;;12.80;71.30;;;;;;349707;28;1050;-55
2024/01/03 01:02:04;;;;;;;37.78;22.20;;;12.80;71.30;;;;;;349679;28;1964;-54
2024/01/03 01:02:14;;;;;;;36.58;22.40;;;12.80;71.30;;;;;;349702;28;898;-54
2024/01/03 01:02:25;;;;;;;34.78;22.38;;;12.80;71.30;;;;;;349817;28;1521;-55
2024/01/03 01:02:36;;;;;;;33.53;21.88;;;12.80;71.30;;;;;;349769;28;1054;-56
2024/01/03 01:02:47;;;;;;;35.15;21.88;;;12.80;71.30;;;;;;349739;28;892;-56
2024/01/03 01:02:59;;;;;;;35.78;21.63;;;12.80;71.30;;;;;;349641;28;1042;-54
2024/01/03 01:03:10;;;;;;;35.58;21.75;;;12.80;71.30;;;;;;349799;28;975;-55
2024/01/03 01:03:20;;;;;;;34.40;21.48;;;12.80;71.30;;;;;;349764;28;892;-54
2024/01/03 01:03:31;;;;;;;35.88;21.58;;;12.80;71.20;;;;;;349720;28;825;-54
2024/01/03 01:03:42;;;;;;;34.55;21.17;;;12.80;71.20;;;;;;349634;28;1055;-54
2024/01/03 01:03:53;;;;;;;35.13;21.00;;;12.80;71.20;;;;;;349726;28;840;-54
2024/01/03 01:04:04;;;;;;;33.33;20.47;;;12.80;71.20;;;;;;349754;28;820;-56
2024/01/03 01:04:15;;;;;;;34.13;20.60;;;12.80;71.20;;;;;;349774;28;1094;-54
2024/01/03 01:04:26;;;;;;;32.22;20.35;;;12.80;71.20;;;;;;349716;28;1077;-54
2024/01/03 01:04:40;;;;;;;33.70;20.88;;;12.80;71.20;;;;;;349718;28;1050;-54
2024/01/03 01:04:51;;;;;;;34.08;20.80;;;12.80;71.20;;;;;;349699;28;1560;-54
2024/01/03 01:05:01;;;;;;;33.08;20.83;;;12.80;71.10;;;;;;349778;28;1073;-54
2024/01/03 01:05:12;;;;;;;32.58;20.38;;;12.80;71.10;;;;;;349731;28;1045;-53
2024/01/03 01:05:23;;;;;;;34.45;20.55;;;12.80;71.10;;;;;;349705;28;1011;-55
2024/01/03 01:05:35;;;;;;;33.40;20.77;;;12.80;71.10;;;;;;349781;28;1003;-55
2024/01/03 01:05:46;;;;;;;32.95;21.23;;;12.80;71.10;;;;;;349716;28;947;-55
2024/01/03 01:05:57;;;;;;;31.52;21.13;;;12.80;71.10;;;;;;349668;28;934;-54
2024/01/03 01:06:08;;;;;;;33.03;21.25;;;12.80;71.10;;;;;;349719;28;1241;-53
2024/01/03 01:06:19;;;;;;;35.15;21.27;;;12.80;71.10;;;;;;349697;28;1951;-55
2024/01/03 01:06:29;;;;;;;35.03;21.33;;;12.80;71.10;;;;;;349717;28;1103;-56
2024/01/03 01:06:43;;;;;;;33.53;20.98;;;12.80;71.10;;;;;;349613;28;1043;-56
2024/01/03 01:06:54;;;;;;;34.72;21.52;;;12.80;71.10;;;;;;349720;28;923;-53
2024/01/03 01:07:05;;;;;;;34.83;21.85;;;12.80;71.10;;;;;;349686;28;1667;-56
2024/01/03 01:07:16;;;;;;;36.00;22.13;;;12.80;71.10;;;;;;349733;28;820;-55
2024/01/03 01:07:26;;;;;;;34.67;21.40;;;12.80;71.00;;;;;;349649;28;1094;-54